Data for 06/28/2009

Time Sea-Level Adjusted Pressure Absolute Pressure Temperature Relative Humidity Dew Point   
(mb) (inHg) (mb) (inHg) (C) (F) (%) (C) (F)
00:05 1024 30.24 853 25.19 13.1 55.5 47 2.1 35.8
00:10 1024 30.24 853 25.19 13.1 55.5 47 2 35.6
00:15 1024 30.24 853 25.19 13.1 55.6 46 2 35.5
00:20 1024 30.24 853 25.19 13 55.5 47 2.1 35.7
00:25 1024 30.24 853 25.19 12.9 55.3 47 2.1 35.8
00:30 1024 30.24 853 25.19 12.7 54.9 49 2.4 36.4
00:35 1024 30.24 853 25.19 12.5 54.4 49 2.2 36
00:40 1024 30.24 853 25.19 12.4 54.3 49 2.1 35.7
00:45 1024 30.24 853 25.19 12.5 54.5 48 1.9 35.4
00:50 1024 30.24 853 25.19 12.7 54.8 47 1.7 35.1
00:55 1024 30.24 853 25.19 12.7 54.9 47 1.7 35
01:00 1024 30.24 853 25.19 12.7 54.9 46 1.6 34.8
01:05 1024 30.24 853 25.19 12.7 54.9 46 1.6 34.9
01:10 1024 30.24 853 25.19 12.5 54.6 48 1.9 35.3
01:15 1024 30.24 853 25.19 12.4 54.3 48 1.8 35.3
01:20 1024 30.24 853 25.19 12.4 54.2 47 1.5 34.7
01:25 1024 30.24 853 25.19 12.3 54.1 49 2 35.6
01:30 1024 30.24 853 25.19 12 53.5 50 2 35.5
01:35 1024 30.24 853 25.19 11.9 53.5 49 1.5 34.7
01:40 1024 30.24 853 25.19 12.1 53.9 47 1.2 34.2
01:45 1024 30.24 853 25.19 12.6 54.6 45 1 33.8
01:50 1024 30.24 853 25.19 12.9 55.3 45 1.2 34.2
01:55 1024 30.24 853 25.19 12.7 54.8 46 1.4 34.5
02:00 1024 30.24 853 25.19 12.4 54.3 47 1.4 34.6
02:05 1024 30.24 853 25.19 12.2 53.9 47 1.4 34.5
02:10 1024 30.24 853 25.19 12.1 53.8 48 1.4 34.6
02:15 1024 30.24 853 25.19 12 53.6 47 1.2 34.1
02:20 1024 30.24 853 25.19 12.2 53.9 47 1.2 34.2
02:25 1024 30.24 853 25.19 12 53.6 48 1.5 34.6
02:30 1024 30.24 853 25.19 11.7 53 49 1.3 34.4
02:35 1024 30.24 853 25.19 11.7 53 48 1.2 34.2
02:40 1024 30.24 853 25.19 11.6 52.8 49 1.3 34.4
02:45 1024 30.24 853 25.19 11.6 52.8 50 1.6 34.8
02:50 1024 30.24 853 25.19 11.4 52.5 50 1.4 34.6
02:55 1024 30.24 853 25.19 11.3 52.4 50 1.5 34.6
03:00 1024 30.24 853 25.19 11.3 52.3 51 1.5 34.7
03:05 1024 30.24 853 25.19 11.2 52.1 51 1.5 34.7
03:10 1024 30.24 853 25.19 11.1 51.9 52 1.6 34.8
03:15 1024 30.24 853 25.19 11.1 52 50 1.3 34.3
03:20 1024 30.24 853 25.19 11.3 52.3 50 1.4 34.5
03:25 1024 30.24 853 25.19 11.2 52.2 50 1.2 34.1
03:30 1024 30.24 853 25.19 11.3 52.4 50 1.4 34.5
03:35 1023 30.21 853 25.19 11.2 52.1 50 1.3 34.3
03:40 1023 30.21 853 25.19 11.1 52 51 1.5 34.7
03:45 1023 30.21 853 25.19 11.1 52 50 1 33.8
03:50 1023 30.21 853 25.19 11.4 52.5 50 1.3 34.4
03:55 1023 30.21 853 25.19 11 51.8 52 1.5 34.7
04:00 1023 30.21 853 25.19 10.8 51.4 51 1.2 34.1
04:05 1023 30.21 853 25.19 11 51.8 50 1.1 34.1
04:10 1023 30.21 853 25.19 10.9 51.6 52 1.4 34.6
04:15 1023 30.21 853 25.19 10.7 51.3 52 1.3 34.4
04:20 1023 30.21 853 25.19 10.6 51.1 53 1.5 34.8
04:25 1024 30.24 853 25.19 10.5 50.9 53 1.5 34.6
04:30 1023 30.21 853 25.19 10.5 50.9 53 1.4 34.5
04:35 1023 30.21 853 25.19 10.6 51.1 51 1 33.8
04:40 1023 30.21 853 25.19 10.9 51.7 51 1.2 34.1
04:45 1023 30.21 853 25.19 10.9 51.7 51 1.2 34.1
04:50 1023 30.21 853 25.19 11 51.8 50 1.1 34
04:55 1023 30.21 853 25.19 11.1 51.9 51 1.3 34.3
05:00 1023 30.21 853 25.19 10.8 51.4 52 1.5 34.7
05:05 1023 30.21 853 25.19 10.5 51 52 1.1 34.1
05:10 1023 30.21 853 25.19 10.7 51.2 52 1.3 34.3
05:15 1023 30.21 853 25.19 10.8 51.4 52 1.3 34.3
05:20 1024 30.24 853 25.19 10.8 51.5 51 1.1 34.1
05:25 1023 30.21 853 25.19 11 51.8 50 1.1 34.1
05:30 1024 30.24 853 25.19 11.1 51.9 51 1.3 34.4
05:35 1023 30.21 853 25.19 11 51.8 50 1.1 34.1
05:40 1023 30.21 853 25.19 11 51.8 50 1.1 34
05:45 1023 30.21 853 25.19 10.9 51.5 52 1.6 34.8
05:50 1023 30.21 853 25.19 10.4 50.7 54 1.6 34.8
05:55 1023 30.21 853 25.19 10.1 50.2 55 1.4 34.6
06:00 1023 30.21 853 25.19 10.3 50.6 53 1.3 34.3
06:05 1023 30.21 853 25.19 10.9 51.5 50 1 33.8
06:10 1023 30.21 853 25.19 11.2 52.2 51 1.5 34.7
06:15 1023 30.21 853 25.19 11 51.8 53 1.7 35.1
06:20 1023 30.21 852 25.16 10.8 51.5 53 1.7 35
06:25 1023 30.21 852 25.16 11 51.7 52 1.6 34.9
06:30 1023 30.21 852 25.16 11.2 52.1 53 2 35.6
06:35 1023 30.21 852 25.16 11.1 51.9 52 1.7 35.1
06:40 1023 30.21 852 25.16 11.1 52 53 2 35.5
06:45 1023 30.21 852 25.16 10.9 51.7 54 2.1 35.8
06:50 1023 30.21 852 25.16 10.9 51.6 52 1.6 34.8
06:55 1023 30.21 852 25.16 11.3 52.4 53 2.1 35.7
07:00 1023 30.21 852 25.16 11.4 52.5 54 2.5 36.4
07:05 1023 30.21 852 25.16 11.5 52.7 54 2.5 36.6
07:10 1023 30.21 852 25.16 11.8 53.2 53 2.5 36.5
07:15 1023 30.21 852 25.16 12 53.7 53 2.7 36.9
07:20 1023 30.21 852 25.16 12.3 54.1 53 3.1 37.6
07:25 1023 30.21 852 25.16 12.5 54.5 52 3.1 37.6
07:30 1023 30.21 852 25.16 12.7 54.9 53 3.6 38.4
07:35 1023 30.21 852 25.16 13.1 55.7 53 3.8 38.8
07:40 1023 30.21 852 25.16 13.6 56.5 53 4.3 39.7
07:45 1023 30.21 852 25.16 14.1 57.3 51 4 39.3
07:50 1023 30.21 852 25.16 14.2 57.5 51 4.4 39.8
07:55 1023 30.21 852 25.16 14.5 58.1 50 4.4 40
08:00 1023 30.21 852 25.16 15.3 59.5 49 4.6 40.3
08:05 1023 30.21 852 25.16 16.1 60.9 45 4.2 39.6
08:10 1023 30.21 852 25.16 16.7 62 45 4.8 40.6
08:15 1023 30.21 852 25.16 16.5 61.8 45 4.6 40.3
08:20 1023 30.21 852 25.16 16.6 61.8 45 4.6 40.4
08:25 1023 30.21 852 25.16 17.3 63.1 42 4.4 39.8
08:30 1023 30.21 852 25.16 17.2 62.9 43 4.7 40.5
08:35 1023 30.21 852 25.16 17.2 63 43 4.6 40.4
08:40 1023 30.21 852 25.16 17.8 64.1 43 5.2 41.4
08:45 1023 30.21 852 25.16 18.4 65.1 40 4.6 40.2
08:50 1023 30.21 852 25.16 18.6 65.5 40 4.8 40.7
08:55 1023 30.21 852 25.16 19.2 66.6 39 5.3 41.5
09:00 1023 30.21 852 25.16 19.1 66.5 39 5 40.9
09:05 1023 30.21 852 25.16 18.7 65.6 39 4.6 40.2
09:10 1023 30.21 852 25.16 19 66.3 39 4.8 40.7
09:15 1023 30.21 852 25.16 19.6 67.3 38 5 40.9
09:20 1023 30.21 852 25.16 19.5 67 37 4.6 40.3
09:25 1023 30.21 852 25.16 19.7 67.5 38 5 41.1
09:30 1023 30.21 852 25.16 19.9 67.8 36 4.7 40.4
09:35 1023 30.21 852 25.16 20.5 68.9 37 5.5 41.9
09:40 1023 30.21 852 25.16 20.5 68.9 36 5 41
09:45 1023 30.21 852 25.16 20.3 68.5 38 5.5 42
09:50 1023 30.21 852 25.16 20.3 68.5 36 4.9 40.9
09:55 1023 30.21 852 25.16 20.8 69.4 36 5.1 41.3
10:00 1022 30.18 852 25.16 20.9 69.6 35 5 41
10:05 1022 30.18 852 25.16 21.8 71.2 33 4.8 40.7
10:10 1022 30.18 851 25.13 22.1 71.7 33 5 41.1
10:15 1022 30.18 851 25.13 22.7 72.9 31 4.9 40.8
10:20 1022 30.18 851 25.13 22.5 72.4 32 5.1 41.2
10:25 1022 30.18 851 25.13 22.2 72 31 4.5 40.1
10:30 1022 30.18 851 25.13 22.3 72.2 31 4.6 40.2
10:35 1022 30.18 851 25.13 23.1 73.5 29 4.3 39.8
10:40 1022 30.18 851 25.13 23.3 74 29 4.6 40.3
10:45 1022 30.18 851 25.13 23.4 74.1 29 4.7 40.5
10:50 1022 30.18 851 25.13 24.3 75.7 27 4.3 39.8
10:55 1022 30.18 851 25.13 23.4 74.1 29 4.7 40.5
11:00 1022 30.18 851 25.13 23.3 74 27 3.7 38.6
11:05 1022 30.18 851 25.13 24.1 75.5 26 3.8 38.9
11:10 1022 30.18 851 25.13 24.1 75.3 27 4.3 39.7
11:15 1022 30.18 851 25.13 23.6 74.4 27 3.9 39.1
11:20 1022 30.18 851 25.13 23.1 73.7 30 4.9 40.8
11:25 1022 30.18 851 25.13 23.1 73.7 28 3.9 39.1
11:30 1022 30.18 851 25.13 23.5 74.2 29 4.6 40.3
11:35 1022 30.18 851 25.13 22.8 73 31 5 40.9
11:40 1021 30.15 851 25.13 23.4 74.2 27 3.6 38.5
11:45 1021 30.15 851 25.13 24.1 75.3 25 3.2 37.8
11:50 1021 30.15 851 25.13 23.6 74.6 28 4.1 39.4
11:55 1021 30.15 851 25.13 24 75.2 28 4.7 40.4
12:00 1021 30.15 851 25.13 23.4 74.1 27 3.7 38.7
12:05 1021 30.15 851 25.13 23.7 74.6 27 3.7 38.6
12:10 1021 30.15 851 25.13 24.7 76.4 26 4.1 39.3
12:15 1021 30.15 850 25.1 24.2 75.6 27 4.5 40.1
12:20 1021 30.15 850 25.1 25 76.9 26 4.5 40.1
12:25 1021 30.15 850 25.1 25.6 78.1 25 4.2 39.5
12:30 1021 30.15 850 25.1 25.5 78 25 4.2 39.5
12:35 1021 30.15 850 25.1 26.1 79.1 24 4.4 39.9
12:40 1021 30.15 850 25.1 25.8 78.4 25 4.6 40.3
12:45 1021 30.15 850 25.1 25.9 78.7 25 4.6 40.3
12:50 1021 30.15 850 25.1 25.4 77.7 27 5.1 41.2
12:55 1021 30.15 850 25.1 25.8 78.4 24 4.1 39.4
13:00 1021 30.15 850 25.1 26.4 79.6 24 4.7 40.5
13:05 1021 30.15 850 25.1 26.3 79.4 25 4.9 40.9
13:10 1021 30.15 850 25.1 26.6 79.9 24 4.9 40.8
13:15 1021 30.15 850 25.1 26.7 80 23 4.1 39.4
13:20 1021 30.15 850 25.1 26.6 79.9 24 4.6 40.3
13:25 1021 30.15 850 25.1 26.5 79.8 24 4.7 40.5
13:30 1021 30.15 850 25.1 26.7 80.1 25 5.2 41.3
13:35 1021 30.15 850 25.1 27.1 80.9 23 4.3 39.7
13:40 1021 30.15 850 25.1 27 80.6 23 4.2 39.5
13:45 1020 30.12 850 25.1 27.1 80.8 23 4.5 40.2
13:50 1020 30.12 850 25.1 27.6 81.7 22 4.4 40
13:55 1020 30.12 850 25.1 28.1 82.5 23 5.3 41.6
14:00 1020 30.12 849 25.07 28.1 82.6 21 4.3 39.8
14:05 1020 30.12 849 25.07 27.7 81.8 23 5 40.9
14:10 1020 30.12 849 25.07 27.6 81.7 22 4.1 39.3
14:15 1020 30.12 849 25.07 28.3 82.9 21 4.3 39.7
14:20 1020 30.12 849 25.07 27.8 82 23 5 41
14:25 1020 30.12 849 25.07 26.9 80.4 23 4.3 39.7
14:30 1020 30.12 849 25.07 27.8 82 23 4.9 40.8
14:35 1020 30.12 849 25.07 28 82.4 23 5.1 41.1
14:40 1020 30.12 849 25.07 27.6 81.7 23 5.1 41.2
14:45 1020 30.12 849 25.07 28.5 83.2 22 5.2 41.4
14:50 1020 30.12 849 25.07 29.1 84.3 22 5.3 41.5
14:55 1020 30.12 849 25.07 29 84.2 20 4.1 39.4
15:00 1020 30.12 849 25.07 28.9 84.1 20 4.3 39.8
15:05 1020 30.12 849 25.07 29.4 85 20 4.4 40
15:10 1020 30.12 849 25.07 28.3 82.9 23 5.5 41.9
15:15 1020 30.12 849 25.07 27.8 82 23 4.9 40.9
15:20 1020 30.12 849 25.07 28.9 84 23 5.9 42.6
15:25 1020 30.12 849 25.07 29.6 85.4 18 3.4 38.1
15:30 1020 30.12 849 25.07 29.7 85.5 19 3.7 38.7
15:35 1019 30.09 849 25.07 29.3 84.7 17 2 35.7
15:40 1019 30.09 849 25.07 29.3 84.8 18 2.6 36.7
15:45 1019 30.09 849 25.07 29.5 85 18 2.9 37.2
15:50 1019 30.09 848 25.04 29.2 84.6 17 2.2 36
15:55 1019 30.09 848 25.04 29.4 84.9 19 3.8 38.9
16:00 1019 30.09 848 25.04 29.4 84.9 17 2.1 35.7
16:05 1019 30.09 848 25.04 29 84.3 15 0.2 32.4
16:10 1019 30.09 848 25.04 28.9 84.1 14 -1 30.2
16:15 1019 30.09 848 25.04 29.3 84.8 15 0.3 32.5
16:20 1019 30.09 848 25.04 29.7 85.4 14 -0.2 31.7
16:25 1019 30.09 848 25.04 29.9 85.8 14 0.1 32.1
16:30 1019 30.09 848 25.04 29.7 85.5 14 0.1 32.1
16:35 1019 30.09 848 25.04 29.5 85.1 16 1.7 35.1
16:40 1019 30.09 848 25.04 29.4 85 15 0.5 33
16:45 1019 30.09 848 25.04 29.8 85.6 16 1.2 34.2
16:50 1019 30.09 848 25.04 29.9 85.7 14 -0.3 31.5
16:55 1019 30.09 848 25.04 29.2 84.6 15 0.5 32.9
17:00 1019 30.09 848 25.04 29.9 85.9 14 0 32
17:05 1019 30.09 848 25.04 30.2 86.4 14 0.1 32.3
17:10 1019 30.09 848 25.04 30.3 86.5 13 -1.3 29.7
17:15 1019 30.09 848 25.04 30 86 13 -1.5 29.3
17:20 1019 30.09 848 25.04 30.1 86.2 13 -1.1 30
17:25 1019 30.09 848 25.04 30.1 86.2 13 -1.1 30.1
17:30 1018 30.06 848 25.04 29.9 85.8 13 -0.7 30.7
17:35 1018 30.06 848 25.04 29.9 85.9 13 -1.5 29.2
17:40 1018 30.06 848 25.04 30 86 12 -2.2 28
17:45 1018 30.06 847 25.01 29.6 85.2 13 -1.3 29.7
17:50 1018 30.06 847 25.01 29.3 84.7 15 0 32.1
17:55 1018 30.06 847 25.01 29.6 85.3 14 -0.6 30.9
18:00 1018 30.06 847 25.01 29.5 85.2 14 -0.6 31
18:05 1018 30.06 847 25.01 29.6 85.3 13 -0.9 30.4
18:10 1018 30.06 847 25.01 29.4 84.9 15 0 32.1
18:15 1018 30.06 847 25.01 29 84.1 15 0.1 32.2
18:20 1018 30.06 847 25.01 29 84.1 16 1.2 34.1
18:25 1018 30.06 847 25.01 29.1 84.3 16 0.7 33.2
18:30 1018 30.06 847 25.01 28.8 83.9 15 -0.1 31.8
18:35 1018 30.06 847 25.01 28.2 82.8 15 -0.6 31
18:40 1018 30.06 847 25.01 28.3 83 17 0.9 33.6
18:45 1018 30.06 847 25.01 28.5 83.2 15 -0 32
18:50 1018 30.06 847 25.01 28.3 82.9 18 1.6 34.9
18:55 1018 30.06 847 25.01 28.4 83.1 17 0.9 33.7
19:00 1018 30.06 847 25.01 28.2 82.8 17 1.3 34.3
19:05 1018 30.06 847 25.01 28.1 82.7 19 2.3 36.2
19:10 1018 30.06 847 25.01 28.1 82.6 19 2.4 36.3
19:15 1018 30.06 847 25.01 28.2 82.7 19 2.9 37.2
19:20 1018 30.06 847 25.01 27.9 82.1 20 3.2 37.8
19:25 1018 30.06 847 25.01 27.7 81.8 20 3 37.5
19:30 1018 30.06 847 25.01 27.7 81.8 21 3.9 39
19:35 1018 30.06 847 25.01 27.2 80.9 23 4.7 40.5
19:40 1018 30.06 847 25.01 26.9 80.3 23 4 39.2
19:45 1018 30.06 847 25.01 26.6 79.8 24 4.7 40.5
19:50 1018 30.06 847 25.01 26.3 79.4 25 5.1 41.3
19:55 1018 30.06 847 25.01 26.2 79.1 27 5.8 42.4
20:00 1018 30.06 847 25.01 25.8 78.5 30 7 44.7
20:05 1018 30.06 847 25.01 25.5 78 27 5.5 41.9
20:10 1018 30.06 847 25.01 25.6 78.1 27 5.4 41.8
20:15 1018 30.06 847 25.01 25.6 78 24 3.6 38.5
20:20 1018 30.06 847 25.01 25.5 77.9 25 4.2 39.6
20:25 1018 30.06 847 25.01 25.3 77.5 25 4.4 39.9
20:30 1018 30.06 847 25.01 25 76.9 28 5.5 41.9
20:35 1018 30.06 847 25.01 24.7 76.4 28 5.4 41.6
20:40 1018 30.06 847 25.01 24.2 75.6 29 5.4 41.7
20:45 1018 30.06 847 25.01 23.6 74.5 30 5.2 41.3
20:50 1018 30.06 847 25.01 23.2 73.8 31 5.3 41.5
20:55 1018 30.06 847 25.01 22.9 73.2 31 5 41.1
21:00 1018 30.06 847 25.01 22.8 73 30 4.6 40.2
21:05 1018 30.06 847 25.01 22.6 72.7 31 4.7 40.4
21:10 1018 30.06 847 25.01 22.6 72.6 29 4 39.1
21:15 1018 30.06 847 25.01 22.8 73 29 4 39.3
21:20 1018 30.06 847 25.01 22.5 72.4 30 4.3 39.7
21:25 1018 30.06 847 25.01 22.1 71.7 29 3.2 37.8
21:30 1018 30.06 847 25.01 22.2 71.9 28 3 37.4
21:35 1018 30.06 847 25.01 21.9 71.5 29 3.3 38
21:40 1018 30.06 847 25.01 21.5 70.7 31 3.7 38.7
21:45 1018 30.06 847 25.01 21.1 70 33 4.5 40.1
21:50 1018 30.06 847 25.01 20.7 69.3 37 5.8 42.5
21:55 1018 30.06 847 25.01 20.3 68.6 33 3.7 38.7
22:00 1018 30.06 847 25.01 20.6 69 31 3 37.5
22:05 1018 30.06 847 25.01 20.4 68.7 31 2.8 37
22:10 1018 30.06 847 25.01 20.3 68.5 31 2.6 36.8
22:15 1018 30.06 847 25.01 20.3 68.6 30 2.3 36.1
22:20 1018 30.06 847 25.01 20.4 68.7 29 2.1 35.8
22:25 1018 30.06 847 25.01 20.7 69.3 28 1.9 35.4
22:30 1018 30.06 847 25.01 21 69.9 27 1.7 35.1
22:35 1018 30.06 848 25.04 21.1 70.1 29 2.6 36.7
22:40 1018 30.06 848 25.04 20.3 68.5 32 3.2 37.8
22:45 1018 30.06 848 25.04 19.7 67.4 35 3.8 38.8
22:50 1018 30.06 848 25.04 19.3 66.7 35 3.5 38.3
22:55 1018 30.06 848 25.04 19.7 67.4 34 3.4 38.1
23:00 1018 30.06 848 25.04 20.1 68.1 34 3.8 38.8
23:05 1019 30.09 848 25.04 20.1 68.1 35 4.3 39.8
23:10 1019 30.09 848 25.04 19.8 67.6 35 4.2 39.6
23:15 1019 30.09 848 25.04 19.5 67.1 36 4.3 39.7
23:20 1019 30.09 848 25.04 19.3 66.8 39 5.2 41.4
23:25 1019 30.09 848 25.04 19.3 66.7 36 4.1 39.3
23:30 1019 30.09 848 25.04 19.3 66.7 37 4.3 39.7
23:35 1019 30.09 848 25.04 19 66.1 37 4.2 39.6
23:40 1019 30.09 848 25.04 19 66.2 37 4.2 39.5
23:45 1019 30.09 848 25.04 19 66.2 37 4 39.1
23:50 1019 30.09 848 25.04 19 66.3 37 4.1 39.4
23:55 1019 30.09 848 25.04 18.8 65.9 38 4.3 39.7
24:00 1019 30.09 848 25.04 18.4 65.2 39 4.5 40.2